sensor_id;sensor_type;location;lat;lon;timestamp;temperature;humidity
20833;DHT22;56075;51.264;7.150;2023-08-12T00:00:28;21.10;99.90
20833;DHT22;56075;51.264;7.150;2023-08-12T00:03:00;21.10;99.90
20833;DHT22;56075;51.264;7.150;2023-08-12T00:05:31;21.10;99.90
20833;DHT22;56075;51.264;7.150;2023-08-12T00:08:03;21.30;99.90
20833;DHT22;56075;51.264;7.150;2023-08-12T00:10:34;21.10;99.90
20833;DHT22;56075;51.264;7.150;2023-08-12T00:13:05;21.20;99.90
20833;DHT22;56075;51.264;7.150;2023-08-12T00:15:36;21.20;99.90
20833;DHT22;56075;51.264;7.150;2023-08-12T00:18:08;21.20;99.90
20833;DHT22;56075;51.264;7.150;2023-08-12T00:20:39;21.00;99.90
20833;DHT22;56075;51.264;7.150;2023-08-12T00:23:11;21.10;99.90
20833;DHT22;56075;51.264;7.150;2023-08-12T00:25:42;21.10;99.90
20833;DHT22;56075;51.264;7.150;2023-08-12T00:28:13;21.20;99.90
20833;DHT22;56075;51.264;7.150;2023-08-12T00:30:48;21.20;99.90
20833;DHT22;56075;51.264;7.150;2023-08-12T00:33:19;21.20;99.90
20833;DHT22;56075;51.264;7.150;2023-08-12T00:35:50;21.10;99.90
20833;DHT22;56075;51.264;7.150;2023-08-12T00:38:22;21.10;99.90
20833;DHT22;56075;51.264;7.150;2023-08-12T00:40:53;21.10;99.90
20833;DHT22;56075;51.264;7.150;2023-08-12T00:43:24;21.10;99.90
20833;DHT22;56075;51.264;7.150;2023-08-12T00:45:55;21.10;99.90
20833;DHT22;56075;51.264;7.150;2023-08-12T00:48:27;21.10;99.90
20833;DHT22;56075;51.264;7.150;2023-08-12T00:50:58;21.00;99.90
20833;DHT22;56075;51.264;7.150;2023-08-12T00:53:29;21.00;99.90
20833;DHT22;56075;51.264;7.150;2023-08-12T00:56:01;20.90;99.90
20833;DHT22;56075;51.264;7.150;2023-08-12T00:58:32;20.80;99.90
20833;DHT22;56075;51.264;7.150;2023-08-12T01:01:05;20.60;99.90
20833;DHT22;56075;51.264;7.150;2023-08-12T01:03:37;20.70;99.90
20833;DHT22;56075;51.264;7.150;2023-08-12T01:06:08;20.60;99.90
20833;DHT22;56075;51.264;7.150;2023-08-12T01:08:39;20.60;99.90
20833;DHT22;56075;51.264;7.150;2023-08-12T01:11:16;20.60;99.90
20833;DHT22;56075;51.264;7.150;2023-08-12T01:14:12;20.60;99.90
20833;DHT22;56075;51.264;7.150;2023-08-12T01:16:47;20.60;99.90
20833;DHT22;56075;51.264;7.150;2023-08-12T01:19:43;20.60;99.90
20833;DHT22;56075;51.264;7.150;2023-08-12T01:22:14;20.60;99.90
20833;DHT22;56075;51.264;7.150;2023-08-12T01:24:47;20.70;99.90
20833;DHT22;56075;51.264;7.150;2023-08-12T01:27:18;20.70;99.90
20833;DHT22;56075;51.264;7.150;2023-08-12T01:29:52;21.00;99.90
20833;DHT22;56075;51.264;7.150;2023-08-12T01:35:28;20.80;99.90
20833;DHT22;56075;51.264;7.150;2023-08-12T01:38:03;20.70;99.90
20833;DHT22;56075;51.264;7.150;2023-08-12T01:40:36;20.80;99.90
20833;DHT22;56075;51.264;7.150;2023-08-12T01:43:09;20.70;99.90
20833;DHT22;56075;51.264;7.150;2023-08-12T01:45:41;20.50;99.90
20833;DHT22;56075;51.264;7.150;2023-08-12T01:48:12;20.90;99.90
20833;DHT22;56075;51.264;7.150;2023-08-12T01:50:44;20.80;99.90
20833;DHT22;56075;51.264;7.150;2023-08-12T01:53:18;20.80;99.90
20833;DHT22;56075;51.264;7.150;2023-08-12T01:55:50;20.80;99.90
20833;DHT22;56075;51.264;7.150;2023-08-12T01:58:22;20.70;99.90
20833;DHT22;56075;51.264;7.150;2023-08-12T02:00:53;20.70;99.90
20833;DHT22;56075;51.264;7.150;2023-08-12T02:03:24;20.90;99.90
20833;DHT22;56075;51.264;7.150;2023-08-12T02:05:56;20.70;99.90
20833;DHT22;56075;51.264;7.150;2023-08-12T02:08:27;20.80;99.90
20833;DHT22;56075;51.264;7.150;2023-08-12T02:10:58;20.70;99.90
20833;DHT22;56075;51.264;7.150;2023-08-12T02:13:29;20.60;99.90
20833;DHT22;56075;51.264;7.150;2023-08-12T02:16:01;20.40;99.90
20833;DHT22;56075;51.264;7.150;2023-08-12T02:18:32;20.60;99.90
20833;DHT22;56075;51.264;7.150;2023-08-12T02:21:03;20.60;99.90
20833;DHT22;56075;51.264;7.150;2023-08-12T02:23:34;20.60;99.90
20833;DHT22;56075;51.264;7.150;2023-08-12T02:26:05;20.50;99.90
20833;DHT22;56075;51.264;7.150;2023-08-12T02:28:36;20.60;99.90
20833;DHT22;56075;51.264;7.150;2023-08-12T02:31:07;20.80;99.90
20833;DHT22;56075;51.264;7.150;2023-08-12T02:33:39;20.70;99.90
20833;DHT22;56075;51.264;7.150;2023-08-12T02:36:10;20.60;99.90
20833;DHT22;56075;51.264;7.150;2023-08-12T02:38:43;20.60;99.90
20833;DHT22;56075;51.264;7.150;2023-08-12T02:41:15;20.60;99.90
20833;DHT22;56075;51.264;7.150;2023-08-12T02:43:46;20.50;99.90
20833;DHT22;56075;51.264;7.150;2023-08-12T02:46:17;21.00;99.90
20833;DHT22;56075;51.264;7.150;2023-08-12T02:48:49;20.60;99.90
20833;DHT22;56075;51.264;7.150;2023-08-12T02:51:20;20.70;99.90
20833;DHT22;56075;51.264;7.150;2023-08-12T02:53:51;20.70;99.90
20833;DHT22;56075;51.264;7.150;2023-08-12T02:56:22;20.60;99.90
20833;DHT22;56075;51.264;7.150;2023-08-12T02:58:53;20.60;99.90
20833;DHT22;56075;51.264;7.150;2023-08-12T03:01:24;20.60;99.90
20833;DHT22;56075;51.264;7.150;2023-08-12T03:03:55;20.50;99.90
20833;DHT22;56075;51.264;7.150;2023-08-12T03:06:27;20.90;99.90
20833;DHT22;56075;51.264;7.150;2023-08-12T03:08:58;20.60;99.90
20833;DHT22;56075;51.264;7.150;2023-08-12T03:11:30;20.60;99.90
20833;DHT22;56075;51.264;7.150;2023-08-12T03:14:03;20.60;99.90
20833;DHT22;56075;51.264;7.150;2023-08-12T03:16:34;20.60;99.90
20833;DHT22;56075;51.264;7.150;2023-08-12T03:19:06;20.60;99.90
20833;DHT22;56075;51.264;7.150;2023-08-12T03:21:38;20.60;99.90
20833;DHT22;56075;51.264;7.150;2023-08-12T03:24:10;20.70;99.90
20833;DHT22;56075;51.264;7.150;2023-08-12T03:26:42;20.50;99.90
20833;DHT22;56075;51.264;7.150;2023-08-12T03:29:13;20.60;99.90
20833;DHT22;56075;51.264;7.150;2023-08-12T03:31:46;20.60;99.90
20833;DHT22;56075;51.264;7.150;2023-08-12T03:34:18;21.70;99.90
20833;DHT22;56075;51.264;7.150;2023-08-12T03:36:49;20.50;99.90
20833;DHT22;56075;51.264;7.150;2023-08-12T03:39:23;20.60;99.90
20833;DHT22;56075;51.264;7.150;2023-08-12T03:41:55;20.50;99.90
20833;DHT22;56075;51.264;7.150;2023-08-12T03:44:26;20.60;99.90
20833;DHT22;56075;51.264;7.150;2023-08-12T03:46:57;20.60;99.90
20833;DHT22;56075;51.264;7.150;2023-08-12T03:49:31;20.60;99.90
20833;DHT22;56075;51.264;7.150;2023-08-12T03:52:02;20.60;99.90
20833;DHT22;56075;51.264;7.150;2023-08-12T03:54:34;20.50;99.90
20833;DHT22;56075;51.264;7.150;2023-08-12T03:57:05;20.60;99.90
20833;DHT22;56075;51.264;7.150;2023-08-12T03:59:37;20.40;99.90
20833;DHT22;56075;51.264;7.150;2023-08-12T04:02:08;20.40;99.90
20833;DHT22;56075;51.264;7.150;2023-08-12T04:04:39;20.40;99.90
20833;DHT22;56075;51.264;7.150;2023-08-12T04:07:10;20.20;99.90
20833;DHT22;56075;51.264;7.150;2023-08-12T04:09:41;20.40;99.90
20833;DHT22;56075;51.264;7.150;2023-08-12T04:12:12;20.40;99.90
20833;DHT22;56075;51.264;7.150;2023-08-12T04:14:44;20.30;99.90
20833;DHT22;56075;51.264;7.150;2023-08-12T04:17:15;20.50;99.90
20833;DHT22;56075;51.264;7.150;2023-08-12T04:19:46;20.50;99.90
20833;DHT22;56075;51.264;7.150;2023-08-12T04:22:17;20.50;99.90
20833;DHT22;56075;51.264;7.150;2023-08-12T04:24:49;20.60;99.90
20833;DHT22;56075;51.264;7.150;2023-08-12T04:27:20;20.50;99.90
20833;DHT22;56075;51.264;7.150;2023-08-12T04:29:51;20.60;99.90
20833;DHT22;56075;51.264;7.150;2023-08-12T04:32:23;20.70;99.90
20833;DHT22;56075;51.264;7.150;2023-08-12T04:34:55;20.70;99.90
20833;DHT22;56075;51.264;7.150;2023-08-12T04:37:26;20.60;99.90
20833;DHT22;56075;51.264;7.150;2023-08-12T04:39:59;20.70;99.90
20833;DHT22;56075;51.264;7.150;2023-08-12T04:42:31;20.60;99.90
20833;DHT22;56075;51.264;7.150;2023-08-12T04:45:02;20.60;99.90
20833;DHT22;56075;51.264;7.150;2023-08-12T04:47:36;20.70;99.90
20833;DHT22;56075;51.264;7.150;2023-08-12T04:50:08;20.60;99.90
20833;DHT22;56075;51.264;7.150;2023-08-12T04:52:39;20.60;99.90
20833;DHT22;56075;51.264;7.150;2023-08-12T04:55:11;20.60;99.90
20833;DHT22;56075;51.264;7.150;2023-08-12T04:57:43;20.60;99.90
20833;DHT22;56075;51.264;7.150;2023-08-12T05:00:14;20.60;99.90
20833;DHT22;56075;51.264;7.150;2023-08-12T05:02:45;20.70;99.90
20833;DHT22;56075;51.264;7.150;2023-08-12T05:05:17;20.90;99.90
20833;DHT22;56075;51.264;7.150;2023-08-12T05:07:48;20.80;99.90
20833;DHT22;56075;51.264;7.150;2023-08-12T05:10:21;20.70;99.90
20833;DHT22;56075;51.264;7.150;2023-08-12T05:12:53;20.90;99.90
20833;DHT22;56075;51.264;7.150;2023-08-12T05:15:25;20.90;99.90
20833;DHT22;56075;51.264;7.150;2023-08-12T05:17:56;20.90;99.90
20833;DHT22;56075;51.264;7.150;2023-08-12T05:20:28;20.90;99.90
20833;DHT22;56075;51.264;7.150;2023-08-12T05:23:00;21.00;99.90
20833;DHT22;56075;51.264;7.150;2023-08-12T05:25:33;21.00;99.90
20833;DHT22;56075;51.264;7.150;2023-08-12T05:28:04;20.90;99.90
20833;DHT22;56075;51.264;7.150;2023-08-12T05:30:35;21.00;99.90
20833;DHT22;56075;51.264;7.150;2023-08-12T05:33:06;21.20;99.90
20833;DHT22;56075;51.264;7.150;2023-08-12T05:35:38;21.20;99.90
20833;DHT22;56075;51.264;7.150;2023-08-12T05:38:09;21.20;99.90
20833;DHT22;56075;51.264;7.150;2023-08-12T05:40:41;21.60;99.90
20833;DHT22;56075;51.264;7.150;2023-08-12T05:43:12;21.20;99.90
20833;DHT22;56075;51.264;7.150;2023-08-12T05:45:43;21.30;99.90
20833;DHT22;56075;51.264;7.150;2023-08-12T05:48:15;21.30;99.90
20833;DHT22;56075;51.264;7.150;2023-08-12T05:50:46;21.20;99.90
20833;DHT22;56075;51.264;7.150;2023-08-12T05:53:17;21.20;99.90
20833;DHT22;56075;51.264;7.150;2023-08-12T05:55:48;21.20;99.90
20833;DHT22;56075;51.264;7.150;2023-08-12T05:58:19;21.30;99.90
20833;DHT22;56075;51.264;7.150;2023-08-12T06:00:51;21.10;99.90
20833;DHT22;56075;51.264;7.150;2023-08-12T06:03:22;21.10;99.90
20833;DHT22;56075;51.264;7.150;2023-08-12T06:05:53;21.20;99.90
20833;DHT22;56075;51.264;7.150;2023-08-12T06:08:25;21.10;99.90
20833;DHT22;56075;51.264;7.150;2023-08-12T06:10:56;21.20;99.90
20833;DHT22;56075;51.264;7.150;2023-08-12T06:13:28;21.10;99.90
20833;DHT22;56075;51.264;7.150;2023-08-12T06:15:59;21.00;99.90
20833;DHT22;56075;51.264;7.150;2023-08-12T06:18:30;21.00;99.90
20833;DHT22;56075;51.264;7.150;2023-08-12T06:21:02;20.90;99.90
20833;DHT22;56075;51.264;7.150;2023-08-12T06:23:33;20.90;99.90
20833;DHT22;56075;51.264;7.150;2023-08-12T06:26:04;20.60;99.90
20833;DHT22;56075;51.264;7.150;2023-08-12T06:28:35;20.80;99.90
20833;DHT22;56075;51.264;7.150;2023-08-12T06:31:07;20.70;99.90
20833;DHT22;56075;51.264;7.150;2023-08-12T06:33:38;20.60;99.90
20833;DHT22;56075;51.264;7.150;2023-08-12T06:36:09;20.50;99.90
20833;DHT22;56075;51.264;7.150;2023-08-12T06:38:40;20.70;99.90
20833;DHT22;56075;51.264;7.150;2023-08-12T06:41:11;21.10;99.90
20833;DHT22;56075;51.264;7.150;2023-08-12T06:43:42;20.40;99.90
20833;DHT22;56075;51.264;7.150;2023-08-12T06:46:13;20.30;99.90
20833;DHT22;56075;51.264;7.150;2023-08-12T06:48:44;20.10;99.90
20833;DHT22;56075;51.264;7.150;2023-08-12T06:51:15;20.40;99.90
20833;DHT22;56075;51.264;7.150;2023-08-12T06:53:47;20.40;99.90
20833;DHT22;56075;51.264;7.150;2023-08-12T06:56:18;20.10;99.90
20833;DHT22;56075;51.264;7.150;2023-08-12T06:58:49;20.40;99.90
20833;DHT22;56075;51.264;7.150;2023-08-12T07:01:20;20.80;99.90
20833;DHT22;56075;51.264;7.150;2023-08-12T07:03:51;20.00;99.90
20833;DHT22;56075;51.264;7.150;2023-08-12T07:06:22;22.30;99.90
20833;DHT22;56075;51.264;7.150;2023-08-12T07:08:53;19.90;99.90
20833;DHT22;56075;51.264;7.150;2023-08-12T07:11:25;20.10;99.90
20833;DHT22;56075;51.264;7.150;2023-08-12T07:13:56;20.30;99.90
20833;DHT22;56075;51.264;7.150;2023-08-12T07:16:27;20.00;99.90
20833;DHT22;56075;51.264;7.150;2023-08-12T07:18:58;20.10;99.90
20833;DHT22;56075;51.264;7.150;2023-08-12T07:21:29;20.10;99.90
20833;DHT22;56075;51.264;7.150;2023-08-12T07:24:00;20.20;99.90
20833;DHT22;56075;51.264;7.150;2023-08-12T07:26:32;20.40;99.90
20833;DHT22;56075;51.264;7.150;2023-08-12T07:29:03;20.30;99.90
20833;DHT22;56075;51.264;7.150;2023-08-12T07:31:34;20.30;99.90
20833;DHT22;56075;51.264;7.150;2023-08-12T07:34:05;20.50;99.90
20833;DHT22;56075;51.264;7.150;2023-08-12T07:36:36;20.40;99.90
20833;DHT22;56075;51.264;7.150;2023-08-12T07:39:07;20.50;99.90
20833;DHT22;56075;51.264;7.150;2023-08-12T07:41:39;20.60;99.90
20833;DHT22;56075;51.264;7.150;2023-08-12T07:44:10;20.50;99.90
20833;DHT22;56075;51.264;7.150;2023-08-12T07:46:41;20.40;99.90
20833;DHT22;56075;51.264;7.150;2023-08-12T07:49:12;20.20;99.90
20833;DHT22;56075;51.264;7.150;2023-08-12T07:51:44;20.60;99.90
20833;DHT22;56075;51.264;7.150;2023-08-12T07:54:15;20.70;99.90
20833;DHT22;56075;51.264;7.150;2023-08-12T07:56:46;20.70;99.90
20833;DHT22;56075;51.264;7.150;2023-08-12T07:59:17;20.70;99.90
20833;DHT22;56075;51.264;7.150;2023-08-12T08:01:48;20.80;99.90
20833;DHT22;56075;51.264;7.150;2023-08-12T08:04:19;20.70;99.90
20833;DHT22;56075;51.264;7.150;2023-08-12T08:06:51;20.80;99.90
20833;DHT22;56075;51.264;7.150;2023-08-12T08:09:22;20.80;99.90
20833;DHT22;56075;51.264;7.150;2023-08-12T08:11:53;20.90;99.90
20833;DHT22;56075;51.264;7.150;2023-08-12T08:14:24;20.80;99.90
20833;DHT22;56075;51.264;7.150;2023-08-12T08:16:55;21.50;99.90
20833;DHT22;56075;51.264;7.150;2023-08-12T08:19:26;21.30;99.90
20833;DHT22;56075;51.264;7.150;2023-08-12T08:21:57;20.70;99.90
20833;DHT22;56075;51.264;7.150;2023-08-12T08:24:29;20.80;99.90
20833;DHT22;56075;51.264;7.150;2023-08-12T08:27:00;20.90;99.90
20833;DHT22;56075;51.264;7.150;2023-08-12T08:29:32;20.90;99.90
20833;DHT22;56075;51.264;7.150;2023-08-12T08:32:03;21.00;99.90
20833;DHT22;56075;51.264;7.150;2023-08-12T08:34:34;21.00;99.90
20833;DHT22;56075;51.264;7.150;2023-08-12T08:37:06;20.80;99.90
20833;DHT22;56075;51.264;7.150;2023-08-12T08:39:37;21.10;99.90
20833;DHT22;56075;51.264;7.150;2023-08-12T08:42:09;21.00;99.90
20833;DHT22;56075;51.264;7.150;2023-08-12T08:44:42;21.00;99.90
20833;DHT22;56075;51.264;7.150;2023-08-12T08:47:15;21.30;99.90
20833;DHT22;56075;51.264;7.150;2023-08-12T08:49:49;21.30;99.90
20833;DHT22;56075;51.264;7.150;2023-08-12T08:52:21;21.60;99.90
20833;DHT22;56075;51.264;7.150;2023-08-12T08:54:52;21.60;99.90
20833;DHT22;56075;51.264;7.150;2023-08-12T08:57:24;21.90;99.90
20833;DHT22;56075;51.264;7.150;2023-08-12T08:59:55;21.40;99.90
20833;DHT22;56075;51.264;7.150;2023-08-12T09:02:26;21.50;99.90
20833;DHT22;56075;51.264;7.150;2023-08-12T09:04:58;21.30;99.90
20833;DHT22;56075;51.264;7.150;2023-08-12T09:07:31;21.20;99.90
20833;DHT22;56075;51.264;7.150;2023-08-12T09:10:03;21.40;99.90
20833;DHT22;56075;51.264;7.150;2023-08-12T09:12:34;21.60;99.90
20833;DHT22;56075;51.264;7.150;2023-08-12T09:15:07;21.70;99.90
20833;DHT22;56075;51.264;7.150;2023-08-12T09:17:38;21.80;99.90
20833;DHT22;56075;51.264;7.150;2023-08-12T09:20:10;21.00;99.90
20833;DHT22;56075;51.264;7.150;2023-08-12T09:22:45;21.60;99.90
20833;DHT22;56075;51.264;7.150;2023-08-12T09:25:20;21.80;99.90
20833;DHT22;56075;51.264;7.150;2023-08-12T09:27:54;21.90;99.90
20833;DHT22;56075;51.264;7.150;2023-08-12T09:30:28;21.80;99.90
20833;DHT22;56075;51.264;7.150;2023-08-12T09:33:02;22.00;99.90
20833;DHT22;56075;51.264;7.150;2023-08-12T09:35:39;21.90;99.90
20833;DHT22;56075;51.264;7.150;2023-08-12T09:38:12;22.10;99.90
20833;DHT22;56075;51.264;7.150;2023-08-12T09:40:46;22.00;99.90
20833;DHT22;56075;51.264;7.150;2023-08-12T09:43:18;22.10;99.90
20833;DHT22;56075;51.264;7.150;2023-08-12T09:45:56;22.20;99.90
20833;DHT22;56075;51.264;7.150;2023-08-12T09:48:28;22.10;99.90
20833;DHT22;56075;51.264;7.150;2023-08-12T09:50:59;22.10;99.90
20833;DHT22;56075;51.264;7.150;2023-08-12T09:53:32;22.10;99.90
20833;DHT22;56075;51.264;7.150;2023-08-12T09:56:08;22.00;99.90
20833;DHT22;56075;51.264;7.150;2023-08-12T09:58:41;22.10;99.90
20833;DHT22;56075;51.264;7.150;2023-08-12T10:01:18;22.00;99.90
20833;DHT22;56075;51.264;7.150;2023-08-12T10:03:50;22.00;99.90
20833;DHT22;56075;51.264;7.150;2023-08-12T10:06:23;22.20;99.90
20833;DHT22;56075;51.264;7.150;2023-08-12T10:08:55;22.10;99.90
20833;DHT22;56075;51.264;7.150;2023-08-12T10:11:28;22.20;99.90
20833;DHT22;56075;51.264;7.150;2023-08-12T10:13:59;22.10;99.90
20833;DHT22;56075;51.264;7.150;2023-08-12T10:16:32;22.10;99.90
20833;DHT22;56075;51.264;7.150;2023-08-12T10:19:05;22.30;99.90
20833;DHT22;56075;51.264;7.150;2023-08-12T10:21:37;22.40;99.90
20833;DHT22;56075;51.264;7.150;2023-08-12T10:24:10;22.50;99.90
20833;DHT22;56075;51.264;7.150;2023-08-12T10:26:43;22.50;99.90
20833;DHT22;56075;51.264;7.150;2023-08-12T10:29:15;23.00;99.90
20833;DHT22;56075;51.264;7.150;2023-08-12T10:31:49;22.70;99.90
20833;DHT22;56075;51.264;7.150;2023-08-12T10:34:22;22.80;99.90
20833;DHT22;56075;51.264;7.150;2023-08-12T10:36:58;22.80;99.90
20833;DHT22;56075;51.264;7.150;2023-08-12T10:39:32;23.00;99.90
20833;DHT22;56075;51.264;7.150;2023-08-12T10:42:03;23.00;99.90
20833;DHT22;56075;51.264;7.150;2023-08-12T10:44:50;23.10;99.90
20833;DHT22;56075;51.264;7.150;2023-08-12T10:47:23;23.20;99.90
20833;DHT22;56075;51.264;7.150;2023-08-12T10:49:54;23.20;99.90
20833;DHT22;56075;51.264;7.150;2023-08-12T10:52:30;23.40;99.90
20833;DHT22;56075;51.264;7.150;2023-08-12T10:55:22;23.40;99.90
20833;DHT22;56075;51.264;7.150;2023-08-12T10:57:54;23.60;99.90
20833;DHT22;56075;51.264;7.150;2023-08-12T11:00:27;23.60;99.90
20833;DHT22;56075;51.264;7.150;2023-08-12T11:02:59;23.70;99.90
20833;DHT22;56075;51.264;7.150;2023-08-12T11:05:37;23.70;99.90
20833;DHT22;56075;51.264;7.150;2023-08-12T11:08:08;23.30;99.90
20833;DHT22;56075;51.264;7.150;2023-08-12T11:10:40;23.50;99.90
20833;DHT22;56075;51.264;7.150;2023-08-12T11:13:14;23.60;99.90
20833;DHT22;56075;51.264;7.150;2023-08-12T11:15:45;23.50;99.90
20833;DHT22;56075;51.264;7.150;2023-08-12T11:18:19;23.60;99.90
20833;DHT22;56075;51.264;7.150;2023-08-12T11:20:51;23.70;99.90
20833;DHT22;56075;51.264;7.150;2023-08-12T11:23:23;23.60;99.90
20833;DHT22;56075;51.264;7.150;2023-08-12T11:25:55;23.40;99.90
20833;DHT22;56075;51.264;7.150;2023-08-12T11:28:26;23.30;99.90
20833;DHT22;56075;51.264;7.150;2023-08-12T11:30:57;23.10;99.90
20833;DHT22;56075;51.264;7.150;2023-08-12T11:33:30;23.00;99.90
20833;DHT22;56075;51.264;7.150;2023-08-12T11:36:01;22.80;99.90
20833;DHT22;56075;51.264;7.150;2023-08-12T11:38:32;22.90;99.90
20833;DHT22;56075;51.264;7.150;2023-08-12T11:41:03;22.40;99.90
20833;DHT22;56075;51.264;7.150;2023-08-12T11:43:35;22.10;99.90
20833;DHT22;56075;51.264;7.150;2023-08-12T11:46:06;21.90;99.90
20833;DHT22;56075;51.264;7.150;2023-08-12T11:48:37;21.50;99.90
20833;DHT22;56075;51.264;7.150;2023-08-12T11:51:09;21.30;99.90
20833;DHT22;56075;51.264;7.150;2023-08-12T11:53:40;21.10;99.90
20833;DHT22;56075;51.264;7.150;2023-08-12T11:56:11;21.20;99.90
20833;DHT22;56075;51.264;7.150;2023-08-12T11:58:42;20.90;99.90
20833;DHT22;56075;51.264;7.150;2023-08-12T12:01:13;20.90;99.90
20833;DHT22;56075;51.264;7.150;2023-08-12T12:03:51;21.00;99.90
20833;DHT22;56075;51.264;7.150;2023-08-12T12:06:32;21.10;99.90
20833;DHT22;56075;51.264;7.150;2023-08-12T12:09:08;21.00;99.90
20833;DHT22;56075;51.264;7.150;2023-08-12T12:11:42;21.10;99.90
20833;DHT22;56075;51.264;7.150;2023-08-12T12:14:13;21.30;99.90
20833;DHT22;56075;51.264;7.150;2023-08-12T12:16:46;21.40;99.90
20833;DHT22;56075;51.264;7.150;2023-08-12T12:19:20;21.80;99.90
20833;DHT22;56075;51.264;7.150;2023-08-12T12:21:53;21.70;99.90
20833;DHT22;56075;51.264;7.150;2023-08-12T12:24:29;20.80;99.90
20833;DHT22;56075;51.264;7.150;2023-08-12T12:27:01;21.10;99.90
20833;DHT22;56075;51.264;7.150;2023-08-12T12:29:32;21.40;99.90
20833;DHT22;56075;51.264;7.150;2023-08-12T12:32:03;21.70;99.90
20833;DHT22;56075;51.264;7.150;2023-08-12T12:34:35;22.00;99.90
20833;DHT22;56075;51.264;7.150;2023-08-12T12:37:06;22.40;99.90
20833;DHT22;56075;51.264;7.150;2023-08-12T12:39:37;22.80;99.90
20833;DHT22;56075;51.264;7.150;2023-08-12T12:42:10;23.10;99.90
20833;DHT22;56075;51.264;7.150;2023-08-12T12:44:41;23.10;99.90
20833;DHT22;56075;51.264;7.150;2023-08-12T12:47:12;23.00;99.90
20833;DHT22;56075;51.264;7.150;2023-08-12T12:49:44;23.10;99.90
20833;DHT22;56075;51.264;7.150;2023-08-12T12:52:15;23.20;99.90
20833;DHT22;56075;51.264;7.150;2023-08-12T12:54:47;23.20;99.90
20833;DHT22;56075;51.264;7.150;2023-08-12T12:57:18;23.10;99.90
20833;DHT22;56075;51.264;7.150;2023-08-12T12:59:49;23.00;99.90
20833;DHT22;56075;51.264;7.150;2023-08-12T13:02:20;22.60;99.90
20833;DHT22;56075;51.264;7.150;2023-08-12T13:04:51;22.70;99.90
20833;DHT22;56075;51.264;7.150;2023-08-12T13:07:22;22.70;99.90
20833;DHT22;56075;51.264;7.150;2023-08-12T13:09:53;22.50;99.90
20833;DHT22;56075;51.264;7.150;2023-08-12T13:12:24;22.50;99.90
20833;DHT22;56075;51.264;7.150;2023-08-12T13:14:55;22.40;99.90
20833;DHT22;56075;51.264;7.150;2023-08-12T13:17:27;22.20;99.90
20833;DHT22;56075;51.264;7.150;2023-08-12T13:19:58;21.60;99.90
20833;DHT22;56075;51.264;7.150;2023-08-12T13:22:29;21.10;99.90
20833;DHT22;56075;51.264;7.150;2023-08-12T13:25:01;20.90;99.90
20833;DHT22;56075;51.264;7.150;2023-08-12T13:27:32;20.60;99.90
20833;DHT22;56075;51.264;7.150;2023-08-12T13:30:04;20.40;99.90
20833;DHT22;56075;51.264;7.150;2023-08-12T13:32:36;20.20;99.90
20833;DHT22;56075;51.264;7.150;2023-08-12T13:35:07;20.20;99.90
20833;DHT22;56075;51.264;7.150;2023-08-12T13:37:39;20.10;99.90
20833;DHT22;56075;51.264;7.150;2023-08-12T13:40:10;20.00;99.90
20833;DHT22;56075;51.264;7.150;2023-08-12T13:42:42;20.10;99.90
20833;DHT22;56075;51.264;7.150;2023-08-12T13:45:14;21.00;99.90
20833;DHT22;56075;51.264;7.150;2023-08-12T13:47:45;20.30;99.90
20833;DHT22;56075;51.264;7.150;2023-08-12T13:50:16;20.60;99.90
20833;DHT22;56075;51.264;7.150;2023-08-12T13:52:48;20.60;99.90
20833;DHT22;56075;51.264;7.150;2023-08-12T13:55:20;20.50;99.90
20833;DHT22;56075;51.264;7.150;2023-08-12T13:57:51;20.50;99.90
20833;DHT22;56075;51.264;7.150;2023-08-12T14:00:23;20.50;99.90
20833;DHT22;56075;51.264;7.150;2023-08-12T14:02:55;20.50;99.90
20833;DHT22;56075;51.264;7.150;2023-08-12T14:05:26;20.50;99.90
20833;DHT22;56075;51.264;7.150;2023-08-12T14:07:58;20.60;99.90
20833;DHT22;56075;51.264;7.150;2023-08-12T14:10:29;20.60;99.90
20833;DHT22;56075;51.264;7.150;2023-08-12T14:13:01;20.60;99.90
20833;DHT22;56075;51.264;7.150;2023-08-12T14:15:32;20.80;99.90
20833;DHT22;56075;51.264;7.150;2023-08-12T14:18:03;21.00;99.90
20833;DHT22;56075;51.264;7.150;2023-08-12T14:20:35;21.00;99.90
20833;DHT22;56075;51.264;7.150;2023-08-12T14:23:06;21.20;99.90
20833;DHT22;56075;51.264;7.150;2023-08-12T14:25:37;21.00;99.90
20833;DHT22;56075;51.264;7.150;2023-08-12T14:28:08;21.30;99.90
20833;DHT22;56075;51.264;7.150;2023-08-12T14:30:39;21.40;99.90
20833;DHT22;56075;51.264;7.150;2023-08-12T14:33:10;21.70;99.90
20833;DHT22;56075;51.264;7.150;2023-08-12T14:35:42;22.00;99.90
20833;DHT22;56075;51.264;7.150;2023-08-12T14:38:13;22.00;99.90
20833;DHT22;56075;51.264;7.150;2023-08-12T14:40:47;22.20;99.90
20833;DHT22;56075;51.264;7.150;2023-08-12T14:43:18;22.40;99.90
20833;DHT22;56075;51.264;7.150;2023-08-12T14:45:49;22.60;99.90
20833;DHT22;56075;51.264;7.150;2023-08-12T14:48:21;22.90;99.90
20833;DHT22;56075;51.264;7.150;2023-08-12T14:50:52;23.10;99.90
20833;DHT22;56075;51.264;7.150;2023-08-12T14:53:24;23.50;99.90
20833;DHT22;56075;51.264;7.150;2023-08-12T14:55:56;23.70;99.90
20833;DHT22;56075;51.264;7.150;2023-08-12T14:58:27;23.50;99.90
20833;DHT22;56075;51.264;7.150;2023-08-12T15:00:58;23.20;99.90
20833;DHT22;56075;51.264;7.150;2023-08-12T15:03:31;22.80;99.90
20833;DHT22;56075;51.264;7.150;2023-08-12T15:06:04;22.50;99.90
20833;DHT22;56075;51.264;7.150;2023-08-12T15:08:35;22.60;99.90
20833;DHT22;56075;51.264;7.150;2023-08-12T15:11:06;23.00;99.90
20833;DHT22;56075;51.264;7.150;2023-08-12T15:13:37;23.20;99.90
20833;DHT22;56075;51.264;7.150;2023-08-12T15:16:09;23.20;99.90
20833;DHT22;56075;51.264;7.150;2023-08-12T15:18:42;23.40;99.90
20833;DHT22;56075;51.264;7.150;2023-08-12T15:21:13;23.20;99.90
20833;DHT22;56075;51.264;7.150;2023-08-12T15:23:44;23.70;99.90
20833;DHT22;56075;51.264;7.150;2023-08-12T15:26:16;24.00;99.90
20833;DHT22;56075;51.264;7.150;2023-08-12T15:28:49;24.50;99.90
20833;DHT22;56075;51.264;7.150;2023-08-12T15:31:20;24.90;99.90
20833;DHT22;56075;51.264;7.150;2023-08-12T15:33:51;25.00;99.90
20833;DHT22;56075;51.264;7.150;2023-08-12T15:36:22;25.00;99.90
20833;DHT22;56075;51.264;7.150;2023-08-12T15:38:53;25.00;99.90
20833;DHT22;56075;51.264;7.150;2023-08-12T15:41:25;24.90;99.90
20833;DHT22;56075;51.264;7.150;2023-08-12T15:43:56;24.60;99.90
20833;DHT22;56075;51.264;7.150;2023-08-12T15:46:28;24.30;99.90
20833;DHT22;56075;51.264;7.150;2023-08-12T15:48:59;24.10;99.90
20833;DHT22;56075;51.264;7.150;2023-08-12T15:51:31;23.60;99.90
20833;DHT22;56075;51.264;7.150;2023-08-12T15:54:02;23.70;99.90
20833;DHT22;56075;51.264;7.150;2023-08-12T15:56:34;23.60;99.90
20833;DHT22;56075;51.264;7.150;2023-08-12T15:59:08;23.70;99.90
20833;DHT22;56075;51.264;7.150;2023-08-12T16:01:39;23.70;99.90